sensor_id;sensor_type;location;lat;lon;timestamp;P1;durP1;ratioP1;P2;durP2;ratioP2
15699;SDS011;7950;42.744;23.174;2024-03-02T00:01:59;48.43;;;26.73;;
15699;SDS011;7950;42.744;23.174;2024-03-02T00:04:29;45.20;;;26.13;;
15699;SDS011;7950;42.744;23.174;2024-03-02T00:06:57;40.53;;;24.43;;
15699;SDS011;7950;42.744;23.174;2024-03-02T00:09:26;41.87;;;24.73;;
15699;SDS011;7950;42.744;23.174;2024-03-02T00:11:55;41.47;;;25.23;;
15699;SDS011;7950;42.744;23.174;2024-03-02T00:14:24;39.40;;;24.37;;
15699;SDS011;7950;42.744;23.174;2024-03-02T00:16:53;41.20;;;24.77;;
15699;SDS011;7950;42.744;23.174;2024-03-02T00:19:23;42.17;;;24.17;;
15699;SDS011;7950;42.744;23.174;2024-03-02T00:21:53;46.90;;;27.53;;
15699;SDS011;7950;42.744;23.174;2024-03-02T00:24:24;40.50;;;25.73;;
15699;SDS011;7950;42.744;23.174;2024-03-02T00:27:00;40.57;;;24.13;;
15699;SDS011;7950;42.744;23.174;2024-03-02T00:29:31;41.77;;;27.03;;
15699;SDS011;7950;42.744;23.174;2024-03-02T00:32:00;48.87;;;29.40;;
15699;SDS011;7950;42.744;23.174;2024-03-02T00:34:29;46.33;;;29.40;;
15699;SDS011;7950;42.744;23.174;2024-03-02T00:36:59;39.57;;;25.57;;
15699;SDS011;7950;42.744;23.174;2024-03-02T00:39:28;38.67;;;23.47;;
15699;SDS011;7950;42.744;23.174;2024-03-02T00:41:57;41.30;;;22.97;;
15699;SDS011;7950;42.744;23.174;2024-03-02T00:44:26;36.33;;;21.80;;
15699;SDS011;7950;42.744;23.174;2024-03-02T00:46:57;40.47;;;27.27;;
15699;SDS011;7950;42.744;23.174;2024-03-02T00:49:27;56.97;;;34.67;;
15699;SDS011;7950;42.744;23.174;2024-03-02T00:51:56;49.27;;;29.80;;
15699;SDS011;7950;42.744;23.174;2024-03-02T00:54:26;36.33;;;22.70;;
15699;SDS011;7950;42.744;23.174;2024-03-02T00:56:56;34.83;;;21.93;;
15699;SDS011;7950;42.744;23.174;2024-03-02T00:59:25;34.37;;;21.77;;
15699;SDS011;7950;42.744;23.174;2024-03-02T01:01:54;33.70;;;20.53;;
15699;SDS011;7950;42.744;23.174;2024-03-02T01:04:22;33.33;;;21.53;;
15699;SDS011;7950;42.744;23.174;2024-03-02T01:06:51;34.53;;;21.17;;
15699;SDS011;7950;42.744;23.174;2024-03-02T01:09:21;35.00;;;23.33;;
15699;SDS011;7950;42.744;23.174;2024-03-02T01:11:49;35.73;;;22.17;;
15699;SDS011;7950;42.744;23.174;2024-03-02T01:14:18;34.63;;;24.00;;
15699;SDS011;7950;42.744;23.174;2024-03-02T01:16:46;33.50;;;22.20;;
15699;SDS011;7950;42.744;23.174;2024-03-02T01:19:15;35.17;;;20.07;;
15699;SDS011;7950;42.744;23.174;2024-03-02T01:21:44;33.00;;;21.20;;
15699;SDS011;7950;42.744;23.174;2024-03-02T01:24:13;33.67;;;21.23;;
15699;SDS011;7950;42.744;23.174;2024-03-02T01:26:43;29.53;;;19.23;;
15699;SDS011;7950;42.744;23.174;2024-03-02T01:29:11;29.90;;;20.27;;
15699;SDS011;7950;42.744;23.174;2024-03-02T01:31:39;34.43;;;20.03;;
15699;SDS011;7950;42.744;23.174;2024-03-02T01:34:08;30.47;;;19.40;;
15699;SDS011;7950;42.744;23.174;2024-03-02T01:36:37;31.80;;;20.47;;
15699;SDS011;7950;42.744;23.174;2024-03-02T01:39:06;31.73;;;20.10;;
15699;SDS011;7950;42.744;23.174;2024-03-02T01:41:35;29.87;;;19.30;;
15699;SDS011;7950;42.744;23.174;2024-03-02T01:44:06;29.47;;;19.83;;
15699;SDS011;7950;42.744;23.174;2024-03-02T01:46:34;29.20;;;20.17;;
15699;SDS011;7950;42.744;23.174;2024-03-02T01:49:03;33.10;;;19.43;;
15699;SDS011;7950;42.744;23.174;2024-03-02T01:51:31;32.37;;;20.57;;
15699;SDS011;7950;42.744;23.174;2024-03-02T01:54:00;32.47;;;20.87;;
15699;SDS011;7950;42.744;23.174;2024-03-02T01:56:28;34.67;;;21.00;;
15699;SDS011;7950;42.744;23.174;2024-03-02T01:58:57;30.17;;;20.30;;
15699;SDS011;7950;42.744;23.174;2024-03-02T02:01:27;33.10;;;19.93;;
15699;SDS011;7950;42.744;23.174;2024-03-02T02:03:56;28.70;;;19.70;;
15699;SDS011;7950;42.744;23.174;2024-03-02T02:06:25;31.83;;;19.93;;
15699;SDS011;7950;42.744;23.174;2024-03-02T02:08:53;29.80;;;19.77;;
15699;SDS011;7950;42.744;23.174;2024-03-02T02:11:22;31.80;;;20.40;;
15699;SDS011;7950;42.744;23.174;2024-03-02T02:13:51;31.30;;;19.37;;
15699;SDS011;7950;42.744;23.174;2024-03-02T02:16:22;32.80;;;20.90;;
15699;SDS011;7950;42.744;23.174;2024-03-02T02:18:52;29.30;;;18.67;;
15699;SDS011;7950;42.744;23.174;2024-03-02T02:21:23;33.33;;;21.53;;
15699;SDS011;7950;42.744;23.174;2024-03-02T02:23:52;35.97;;;21.33;;
15699;SDS011;7950;42.744;23.174;2024-03-02T02:26:21;31.97;;;20.00;;
15699;SDS011;7950;42.744;23.174;2024-03-02T02:28:49;32.53;;;20.87;;
15699;SDS011;7950;42.744;23.174;2024-03-02T02:31:18;32.13;;;21.13;;
15699;SDS011;7950;42.744;23.174;2024-03-02T02:33:46;35.73;;;21.43;;
15699;SDS011;7950;42.744;23.174;2024-03-02T02:36:15;33.10;;;22.23;;
15699;SDS011;7950;42.744;23.174;2024-03-02T02:38:46;37.00;;;22.27;;
15699;SDS011;7950;42.744;23.174;2024-03-02T02:41:16;31.20;;;20.23;;
15699;SDS011;7950;42.744;23.174;2024-03-02T02:43:45;29.50;;;18.43;;
15699;SDS011;7950;42.744;23.174;2024-03-02T02:46:13;32.87;;;21.93;;
15699;SDS011;7950;42.744;23.174;2024-03-02T02:48:42;35.23;;;22.47;;
15699;SDS011;7950;42.744;23.174;2024-03-02T02:51:10;30.87;;;20.53;;
15699;SDS011;7950;42.744;23.174;2024-03-02T02:53:38;33.83;;;21.00;;
15699;SDS011;7950;42.744;23.174;2024-03-02T02:56:09;34.63;;;20.73;;
15699;SDS011;7950;42.744;23.174;2024-03-02T02:58:39;33.17;;;20.27;;
15699;SDS011;7950;42.744;23.174;2024-03-02T03:01:08;31.10;;;18.23;;
15699;SDS011;7950;42.744;23.174;2024-03-02T03:03:37;29.93;;;19.70;;
15699;SDS011;7950;42.744;23.174;2024-03-02T03:06:06;30.87;;;19.83;;
15699;SDS011;7950;42.744;23.174;2024-03-02T03:08:34;33.83;;;20.60;;
15699;SDS011;7950;42.744;23.174;2024-03-02T03:11:03;27.80;;;18.23;;
15699;SDS011;7950;42.744;23.174;2024-03-02T03:13:34;32.70;;;20.10;;
15699;SDS011;7950;42.744;23.174;2024-03-02T03:16:03;29.97;;;19.50;;
15699;SDS011;7950;42.744;23.174;2024-03-02T03:18:32;29.67;;;19.53;;
15699;SDS011;7950;42.744;23.174;2024-03-02T03:21:00;31.67;;;19.53;;
15699;SDS011;7950;42.744;23.174;2024-03-02T03:23:29;30.87;;;20.00;;
15699;SDS011;7950;42.744;23.174;2024-03-02T03:25:58;29.07;;;19.67;;
15699;SDS011;7950;42.744;23.174;2024-03-02T03:28:27;29.30;;;19.67;;
15699;SDS011;7950;42.744;23.174;2024-03-02T03:30:56;32.03;;;20.57;;
15699;SDS011;7950;42.744;23.174;2024-03-02T03:33:25;31.50;;;20.13;;
15699;SDS011;7950;42.744;23.174;2024-03-02T03:35:54;31.20;;;20.23;;
15699;SDS011;7950;42.744;23.174;2024-03-02T03:38:22;33.97;;;21.37;;
15699;SDS011;7950;42.744;23.174;2024-03-02T03:40:50;36.27;;;22.80;;
15699;SDS011;7950;42.744;23.174;2024-03-02T03:43:19;33.23;;;21.20;;
15699;SDS011;7950;42.744;23.174;2024-03-02T03:45:47;33.13;;;21.07;;
15699;SDS011;7950;42.744;23.174;2024-03-02T03:48:17;34.50;;;20.37;;
15699;SDS011;7950;42.744;23.174;2024-03-02T03:50:46;31.13;;;19.40;;
15699;SDS011;7950;42.744;23.174;2024-03-02T03:53:14;32.63;;;20.93;;
15699;SDS011;7950;42.744;23.174;2024-03-02T03:55:43;33.87;;;20.37;;
15699;SDS011;7950;42.744;23.174;2024-03-02T03:58:13;30.00;;;18.90;;
15699;SDS011;7950;42.744;23.174;2024-03-02T04:00:45;34.80;;;21.20;;
15699;SDS011;7950;42.744;23.174;2024-03-02T04:03:14;31.33;;;20.00;;
15699;SDS011;7950;42.744;23.174;2024-03-02T04:05:44;32.83;;;19.00;;
15699;SDS011;7950;42.744;23.174;2024-03-02T04:08:13;33.50;;;20.50;;
15699;SDS011;7950;42.744;23.174;2024-03-02T04:10:41;33.00;;;20.33;;
15699;SDS011;7950;42.744;23.174;2024-03-02T04:13:10;30.70;;;20.33;;
15699;SDS011;7950;42.744;23.174;2024-03-02T04:15:38;31.73;;;20.60;;
15699;SDS011;7950;42.744;23.174;2024-03-02T04:18:08;33.73;;;20.80;;
15699;SDS011;7950;42.744;23.174;2024-03-02T04:20:36;28.47;;;18.73;;
15699;SDS011;7950;42.744;23.174;2024-03-02T04:23:06;31.70;;;19.03;;
15699;SDS011;7950;42.744;23.174;2024-03-02T04:25:34;38.50;;;21.67;;
15699;SDS011;7950;42.744;23.174;2024-03-02T04:28:02;33.77;;;21.70;;
15699;SDS011;7950;42.744;23.174;2024-03-02T04:30:31;31.03;;;19.53;;
15699;SDS011;7950;42.744;23.174;2024-03-02T04:33:00;34.33;;;21.13;;
15699;SDS011;7950;42.744;23.174;2024-03-02T04:35:30;33.37;;;19.80;;
15699;SDS011;7950;42.744;23.174;2024-03-02T04:37:59;38.00;;;21.40;;
15699;SDS011;7950;42.744;23.174;2024-03-02T04:40:28;35.00;;;21.23;;
15699;SDS011;7950;42.744;23.174;2024-03-02T04:42:57;28.97;;;19.57;;
15699;SDS011;7950;42.744;23.174;2024-03-02T04:45:26;30.70;;;19.53;;
15699;SDS011;7950;42.744;23.174;2024-03-02T04:47:54;30.90;;;20.10;;
15699;SDS011;7950;42.744;23.174;2024-03-02T04:50:23;30.63;;;19.33;;
15699;SDS011;7950;42.744;23.174;2024-03-02T04:52:52;33.43;;;21.20;;
15699;SDS011;7950;42.744;23.174;2024-03-02T04:55:20;30.63;;;19.73;;
15699;SDS011;7950;42.744;23.174;2024-03-02T04:58:13;33.03;;;19.80;;
15699;SDS011;7950;42.744;23.174;2024-03-02T05:00:41;31.83;;;20.37;;
15699;SDS011;7950;42.744;23.174;2024-03-02T05:03:13;34.87;;;21.30;;
15699;SDS011;7950;42.744;23.174;2024-03-02T05:05:41;34.60;;;19.77;;
15699;SDS011;7950;42.744;23.174;2024-03-02T05:08:10;31.87;;;20.57;;
15699;SDS011;7950;42.744;23.174;2024-03-02T05:10:39;35.27;;;21.57;;
15699;SDS011;7950;42.744;23.174;2024-03-02T05:13:08;33.93;;;20.67;;
15699;SDS011;7950;42.744;23.174;2024-03-02T05:15:38;32.90;;;20.00;;
15699;SDS011;7950;42.744;23.174;2024-03-02T05:18:07;30.13;;;19.30;;
15699;SDS011;7950;42.744;23.174;2024-03-02T05:20:35;36.37;;;21.63;;
15699;SDS011;7950;42.744;23.174;2024-03-02T05:23:04;34.00;;;21.07;;
15699;SDS011;7950;42.744;23.174;2024-03-02T05:25:32;31.53;;;21.30;;
15699;SDS011;7950;42.744;23.174;2024-03-02T05:28:02;37.07;;;21.67;;
15699;SDS011;7950;42.744;23.174;2024-03-02T05:30:31;33.73;;;20.50;;
15699;SDS011;7950;42.744;23.174;2024-03-02T05:33:00;36.23;;;21.13;;
15699;SDS011;7950;42.744;23.174;2024-03-02T05:35:29;33.67;;;20.70;;
15699;SDS011;7950;42.744;23.174;2024-03-02T05:37:59;34.00;;;19.97;;
15699;SDS011;7950;42.744;23.174;2024-03-02T05:40:27;33.00;;;20.43;;
15699;SDS011;7950;42.744;23.174;2024-03-02T05:42:56;32.40;;;20.83;;
15699;SDS011;7950;42.744;23.174;2024-03-02T05:45:24;32.10;;;20.50;;
15699;SDS011;7950;42.744;23.174;2024-03-02T05:47:53;34.60;;;21.53;;
15699;SDS011;7950;42.744;23.174;2024-03-02T05:50:23;31.17;;;21.33;;
15699;SDS011;7950;42.744;23.174;2024-03-02T05:52:51;33.50;;;21.67;;
15699;SDS011;7950;42.744;23.174;2024-03-02T05:55:20;32.97;;;21.03;;
15699;SDS011;7950;42.744;23.174;2024-03-02T05:57:48;33.27;;;20.60;;
15699;SDS011;7950;42.744;23.174;2024-03-02T06:00:29;43.03;;;22.67;;
15699;SDS011;7950;42.744;23.174;2024-03-02T06:02:58;43.77;;;26.10;;
15699;SDS011;7950;42.744;23.174;2024-03-02T06:05:28;40.33;;;24.83;;
15699;SDS011;7950;42.744;23.174;2024-03-02T06:07:56;38.70;;;21.93;;
15699;SDS011;7950;42.744;23.174;2024-03-02T06:10:25;36.23;;;21.80;;
15699;SDS011;7950;42.744;23.174;2024-03-02T06:12:53;35.30;;;22.07;;
15699;SDS011;7950;42.744;23.174;2024-03-02T06:15:22;39.50;;;22.63;;
15699;SDS011;7950;42.744;23.174;2024-03-02T06:17:50;40.37;;;24.13;;
15699;SDS011;7950;42.744;23.174;2024-03-02T06:20:20;42.03;;;25.33;;
15699;SDS011;7950;42.744;23.174;2024-03-02T06:22:50;48.87;;;26.73;;
15699;SDS011;7950;42.744;23.174;2024-03-02T06:25:18;47.90;;;26.43;;
15699;SDS011;7950;42.744;23.174;2024-03-02T06:27:47;40.33;;;24.57;;
15699;SDS011;7950;42.744;23.174;2024-03-02T06:30:15;36.90;;;23.47;;
15699;SDS011;7950;42.744;23.174;2024-03-02T06:32:44;46.03;;;25.60;;
15699;SDS011;7950;42.744;23.174;2024-03-02T06:35:13;50.03;;;29.93;;
15699;SDS011;7950;42.744;23.174;2024-03-02T06:37:41;39.87;;;23.40;;
15699;SDS011;7950;42.744;23.174;2024-03-02T06:40:11;47.97;;;25.97;;
15699;SDS011;7950;42.744;23.174;2024-03-02T06:42:40;39.23;;;23.23;;
15699;SDS011;7950;42.744;23.174;2024-03-02T06:45:09;43.90;;;24.47;;
15699;SDS011;7950;42.744;23.174;2024-03-02T06:47:37;45.07;;;24.07;;
15699;SDS011;7950;42.744;23.174;2024-03-02T06:50:06;42.97;;;24.10;;
15699;SDS011;7950;42.744;23.174;2024-03-02T06:52:35;40.67;;;25.63;;
15699;SDS011;7950;42.744;23.174;2024-03-02T06:55:05;48.07;;;26.30;;
15699;SDS011;7950;42.744;23.174;2024-03-02T06:57:36;41.50;;;23.50;;
15699;SDS011;7950;42.744;23.174;2024-03-02T07:00:05;45.20;;;25.00;;
15699;SDS011;7950;42.744;23.174;2024-03-02T07:02:35;55.10;;;28.27;;
15699;SDS011;7950;42.744;23.174;2024-03-02T07:05:04;55.40;;;30.60;;
15699;SDS011;7950;42.744;23.174;2024-03-02T07:07:33;56.13;;;30.93;;
15699;SDS011;7950;42.744;23.174;2024-03-02T07:10:03;47.90;;;27.17;;
15699;SDS011;7950;42.744;23.174;2024-03-02T07:12:35;41.97;;;23.90;;
15699;SDS011;7950;42.744;23.174;2024-03-02T07:15:04;50.40;;;27.00;;
15699;SDS011;7950;42.744;23.174;2024-03-02T07:17:51;46.63;;;25.53;;
15699;SDS011;7950;42.744;23.174;2024-03-02T07:20:19;45.57;;;25.40;;
15699;SDS011;7950;42.744;23.174;2024-03-02T07:22:48;50.00;;;25.57;;
15699;SDS011;7950;42.744;23.174;2024-03-02T07:25:16;53.67;;;28.90;;
15699;SDS011;7950;42.744;23.174;2024-03-02T07:27:49;49.77;;;26.57;;
15699;SDS011;7950;42.744;23.174;2024-03-02T07:30:19;49.87;;;26.83;;
15699;SDS011;7950;42.744;23.174;2024-03-02T07:32:49;50.83;;;28.83;;
15699;SDS011;7950;42.744;23.174;2024-03-02T07:35:18;45.57;;;25.60;;
15699;SDS011;7950;42.744;23.174;2024-03-02T07:37:48;46.47;;;26.13;;
15699;SDS011;7950;42.744;23.174;2024-03-02T07:40:16;46.33;;;25.23;;
15699;SDS011;7950;42.744;23.174;2024-03-02T07:42:45;45.53;;;23.57;;
15699;SDS011;7950;42.744;23.174;2024-03-02T07:45:15;49.00;;;25.17;;
15699;SDS011;7950;42.744;23.174;2024-03-02T07:47:44;51.47;;;29.33;;
15699;SDS011;7950;42.744;23.174;2024-03-02T07:50:13;51.53;;;30.50;;
15699;SDS011;7950;42.744;23.174;2024-03-02T07:52:42;54.23;;;29.93;;
15699;SDS011;7950;42.744;23.174;2024-03-02T07:55:10;49.70;;;27.87;;
15699;SDS011;7950;42.744;23.174;2024-03-02T07:57:40;55.83;;;34.53;;
15699;SDS011;7950;42.744;23.174;2024-03-02T08:00:09;48.23;;;27.87;;
15699;SDS011;7950;42.744;23.174;2024-03-02T08:02:42;59.03;;;34.23;;
15699;SDS011;7950;42.744;23.174;2024-03-02T08:05:11;63.77;;;37.43;;
15699;SDS011;7950;42.744;23.174;2024-03-02T08:07:39;63.93;;;37.80;;
15699;SDS011;7950;42.744;23.174;2024-03-02T08:10:08;53.27;;;32.57;;
15699;SDS011;7950;42.744;23.174;2024-03-02T08:12:37;48.33;;;29.23;;
15699;SDS011;7950;42.744;23.174;2024-03-02T08:15:06;44.90;;;24.50;;
15699;SDS011;7950;42.744;23.174;2024-03-02T08:17:35;47.67;;;28.00;;
15699;SDS011;7950;42.744;23.174;2024-03-02T08:20:06;48.37;;;26.30;;
15699;SDS011;7950;42.744;23.174;2024-03-02T08:22:36;47.90;;;25.90;;
15699;SDS011;7950;42.744;23.174;2024-03-02T08:25:05;45.00;;;25.47;;
15699;SDS011;7950;42.744;23.174;2024-03-02T08:27:36;46.43;;;25.17;;
15699;SDS011;7950;42.744;23.174;2024-03-02T08:30:08;46.53;;;25.70;;
15699;SDS011;7950;42.744;23.174;2024-03-02T08:32:38;38.97;;;23.93;;
15699;SDS011;7950;42.744;23.174;2024-03-02T08:35:08;46.50;;;26.90;;
15699;SDS011;7950;42.744;23.174;2024-03-02T08:37:37;47.27;;;26.10;;
15699;SDS011;7950;42.744;23.174;2024-03-02T08:40:07;46.03;;;28.13;;
15699;SDS011;7950;42.744;23.174;2024-03-02T08:42:41;47.23;;;26.30;;
15699;SDS011;7950;42.744;23.174;2024-03-02T08:45:10;37.73;;;23.97;;
15699;SDS011;7950;42.744;23.174;2024-03-02T08:47:38;46.17;;;27.17;;
15699;SDS011;7950;42.744;23.174;2024-03-02T08:50:09;42.77;;;25.87;;
15699;SDS011;7950;42.744;23.174;2024-03-02T08:52:37;41.07;;;23.40;;
15699;SDS011;7950;42.744;23.174;2024-03-02T08:55:06;52.80;;;29.80;;
15699;SDS011;7950;42.744;23.174;2024-03-02T08:57:36;47.60;;;25.93;;
15699;SDS011;7950;42.744;23.174;2024-03-02T09:10:47;43.50;;;27.47;;
15699;SDS011;7950;42.744;23.174;2024-03-02T09:13:15;41.27;;;26.30;;
15699;SDS011;7950;42.744;23.174;2024-03-02T09:15:44;44.10;;;25.53;;
15699;SDS011;7950;42.744;23.174;2024-03-02T09:18:13;39.20;;;24.83;;
15699;SDS011;7950;42.744;23.174;2024-03-02T09:20:42;50.33;;;28.83;;
15699;SDS011;7950;42.744;23.174;2024-03-02T09:23:10;47.10;;;27.20;;
15699;SDS011;7950;42.744;23.174;2024-03-02T09:25:39;38.07;;;22.90;;
15699;SDS011;7950;42.744;23.174;2024-03-02T09:28:10;40.50;;;22.63;;
15699;SDS011;7950;42.744;23.174;2024-03-02T09:30:39;39.37;;;23.10;;
15699;SDS011;7950;42.744;23.174;2024-03-02T09:33:07;40.60;;;24.30;;
15699;SDS011;7950;42.744;23.174;2024-03-02T09:35:39;39.93;;;23.87;;
15699;SDS011;7950;42.744;23.174;2024-03-02T09:38:07;36.67;;;23.17;;
15699;SDS011;7950;42.744;23.174;2024-03-02T09:40:36;40.33;;;22.17;;
15699;SDS011;7950;42.744;23.174;2024-03-02T09:43:04;51.50;;;28.23;;
15699;SDS011;7950;42.744;23.174;2024-03-02T09:45:34;51.73;;;31.07;;
15699;SDS011;7950;42.744;23.174;2024-03-02T09:48:04;46.43;;;26.30;;
15699;SDS011;7950;42.744;23.174;2024-03-02T09:50:34;40.73;;;24.17;;
15699;SDS011;7950;42.744;23.174;2024-03-02T09:53:02;35.40;;;20.87;;
15699;SDS011;7950;42.744;23.174;2024-03-02T09:55:32;35.97;;;21.10;;
15699;SDS011;7950;42.744;23.174;2024-03-02T09:58:01;44.60;;;28.63;;
15699;SDS011;7950;42.744;23.174;2024-03-02T10:00:30;44.63;;;27.97;;
15699;SDS011;7950;42.744;23.174;2024-03-02T10:03:01;47.60;;;30.17;;
15699;SDS011;7950;42.744;23.174;2024-03-02T10:05:31;43.17;;;24.63;;
15699;SDS011;7950;42.744;23.174;2024-03-02T10:08:00;39.43;;;21.90;;
15699;SDS011;7950;42.744;23.174;2024-03-02T10:10:36;33.73;;;21.30;;
15699;SDS011;7950;42.744;23.174;2024-03-02T10:13:08;36.17;;;22.40;;
15699;SDS011;7950;42.744;23.174;2024-03-02T10:15:39;36.97;;;23.63;;
15699;SDS011;7950;42.744;23.174;2024-03-02T10:18:11;36.70;;;21.83;;
15699;SDS011;7950;42.744;23.174;2024-03-02T10:20:42;36.17;;;21.53;;
15699;SDS011;7950;42.744;23.174;2024-03-02T10:23:11;32.97;;;20.80;;
15699;SDS011;7950;42.744;23.174;2024-03-02T10:25:40;37.80;;;23.13;;
15699;SDS011;7950;42.744;23.174;2024-03-02T10:28:23;39.17;;;22.93;;
15699;SDS011;7950;42.744;23.174;2024-03-02T10:30:54;36.23;;;21.73;;
15699;SDS011;7950;42.744;23.174;2024-03-02T10:33:24;37.27;;;22.00;;
15699;SDS011;7950;42.744;23.174;2024-03-02T10:35:53;35.47;;;21.57;;
15699;SDS011;7950;42.744;23.174;2024-03-02T10:38:22;31.27;;;19.73;;
15699;SDS011;7950;42.744;23.174;2024-03-02T10:40:51;33.97;;;20.53;;
15699;SDS011;7950;42.744;23.174;2024-03-02T10:43:21;35.90;;;21.23;;
15699;SDS011;7950;42.744;23.174;2024-03-02T10:45:50;32.87;;;20.93;;
15699;SDS011;7950;42.744;23.174;2024-03-02T10:48:21;28.77;;;18.63;;
15699;SDS011;7950;42.744;23.174;2024-03-02T10:50:53;29.87;;;19.70;;
15699;SDS011;7950;42.744;23.174;2024-03-02T10:53:24;33.03;;;22.43;;
15699;SDS011;7950;42.744;23.174;2024-03-02T10:55:53;41.20;;;23.63;;
15699;SDS011;7950;42.744;23.174;2024-03-02T10:58:32;34.33;;;24.00;;
15699;SDS011;7950;42.744;23.174;2024-03-02T11:01:02;37.13;;;25.17;;
15699;SDS011;7950;42.744;23.174;2024-03-02T11:03:33;34.33;;;22.17;;
15699;SDS011;7950;42.744;23.174;2024-03-02T11:06:05;37.80;;;24.00;;
15699;SDS011;7950;42.744;23.174;2024-03-02T11:08:37;39.27;;;25.27;;
15699;SDS011;7950;42.744;23.174;2024-03-02T11:11:11;48.83;;;29.00;;
15699;SDS011;7950;42.744;23.174;2024-03-02T11:13:47;34.87;;;23.00;;
15699;SDS011;7950;42.744;23.174;2024-03-02T11:16:19;35.13;;;21.57;;
15699;SDS011;7950;42.744;23.174;2024-03-02T11:19:03;35.73;;;21.37;;
15699;SDS011;7950;42.744;23.174;2024-03-02T11:21:34;32.67;;;21.20;;
15699;SDS011;7950;42.744;23.174;2024-03-02T11:27:04;29.60;;;19.27;;
15699;SDS011;7950;42.744;23.174;2024-03-02T11:29:44;31.63;;;20.00;;
15699;SDS011;7950;42.744;23.174;2024-03-02T11:32:14;32.97;;;22.23;;
15699;SDS011;7950;42.744;23.174;2024-03-02T11:34:48;30.43;;;19.30;;
15699;SDS011;7950;42.744;23.174;2024-03-02T11:37:18;31.50;;;19.23;;
15699;SDS011;7950;42.744;23.174;2024-03-02T11:39:49;29.10;;;19.67;;
15699;SDS011;7950;42.744;23.174;2024-03-02T11:42:18;49.67;;;29.90;;
15699;SDS011;7950;42.744;23.174;2024-03-02T11:44:47;49.90;;;29.33;;
15699;SDS011;7950;42.744;23.174;2024-03-02T11:47:17;48.63;;;27.90;;
15699;SDS011;7950;42.744;23.174;2024-03-02T11:49:48;38.67;;;22.90;;
15699;SDS011;7950;42.744;23.174;2024-03-02T11:52:18;42.77;;;30.10;;
15699;SDS011;7950;42.744;23.174;2024-03-02T11:54:47;32.77;;;20.27;;
15699;SDS011;7950;42.744;23.174;2024-03-02T11:57:19;28.47;;;17.67;;
15699;SDS011;7950;42.744;23.174;2024-03-02T11:59:49;35.20;;;20.90;;
15699;SDS011;7950;42.744;23.174;2024-03-02T12:02:19;34.37;;;21.77;;
15699;SDS011;7950;42.744;23.174;2024-03-02T12:04:50;49.50;;;26.63;;
15699;SDS011;7950;42.744;23.174;2024-03-02T12:07:19;44.43;;;26.10;;
15699;SDS011;7950;42.744;23.174;2024-03-02T12:09:49;42.87;;;25.87;;
15699;SDS011;7950;42.744;23.174;2024-03-02T12:12:28;37.57;;;22.00;;
15699;SDS011;7950;42.744;23.174;2024-03-02T12:14:57;35.93;;;20.50;;
15699;SDS011;7950;42.744;23.174;2024-03-02T12:17:27;43.37;;;25.40;;
15699;SDS011;7950;42.744;23.174;2024-03-02T12:19:58;34.77;;;21.77;;
15699;SDS011;7950;42.744;23.174;2024-03-02T12:22:30;44.53;;;26.10;;
15699;SDS011;7950;42.744;23.174;2024-03-02T12:24:59;48.43;;;27.97;;
15699;SDS011;7950;42.744;23.174;2024-03-02T12:27:27;31.67;;;20.37;;
15699;SDS011;7950;42.744;23.174;2024-03-02T12:29:56;40.40;;;25.83;;
15699;SDS011;7950;42.744;23.174;2024-03-02T12:32:25;32.47;;;21.03;;
15699;SDS011;7950;42.744;23.174;2024-03-02T12:34:53;35.87;;;22.50;;
15699;SDS011;7950;42.744;23.174;2024-03-02T12:37:24;37.70;;;23.17;;
15699;SDS011;7950;42.744;23.174;2024-03-02T12:39:54;33.83;;;20.70;;
15699;SDS011;7950;42.744;23.174;2024-03-02T12:42:23;28.93;;;19.07;;
15699;SDS011;7950;42.744;23.174;2024-03-02T12:44:52;30.67;;;18.87;;
15699;SDS011;7950;42.744;23.174;2024-03-02T12:47:22;29.07;;;19.30;;
15699;SDS011;7950;42.744;23.174;2024-03-02T12:49:51;28.27;;;19.10;;
15699;SDS011;7950;42.744;23.174;2024-03-02T12:52:20;28.63;;;19.17;;
15699;SDS011;7950;42.744;23.174;2024-03-02T12:54:50;28.33;;;18.93;;
15699;SDS011;7950;42.744;23.174;2024-03-02T12:57:27;29.27;;;18.77;;
15699;SDS011;7950;42.744;23.174;2024-03-02T12:59:58;38.67;;;23.77;;
15699;SDS011;7950;42.744;23.174;2024-03-02T13:02:27;29.57;;;19.97;;
15699;SDS011;7950;42.744;23.174;2024-03-02T13:04:58;32.97;;;20.17;;
15699;SDS011;7950;42.744;23.174;2024-03-02T13:07:26;29.37;;;17.87;;
15699;SDS011;7950;42.744;23.174;2024-03-02T13:09:58;35.17;;;21.67;;
15699;SDS011;7950;42.744;23.174;2024-03-02T13:12:27;38.83;;;21.77;;
15699;SDS011;7950;42.744;23.174;2024-03-02T13:14:58;34.13;;;22.00;;
15699;SDS011;7950;42.744;23.174;2024-03-02T13:17:27;38.17;;;23.33;;
15699;SDS011;7950;42.744;23.174;2024-03-02T13:20:02;38.20;;;24.10;;
15699;SDS011;7950;42.744;23.174;2024-03-02T13:22:35;33.07;;;20.20;;
15699;SDS011;7950;42.744;23.174;2024-03-02T13:25:05;36.67;;;23.80;;
15699;SDS011;7950;42.744;23.174;2024-03-02T13:27:37;37.20;;;20.97;;
15699;SDS011;7950;42.744;23.174;2024-03-02T13:30:06;31.50;;;19.80;;
15699;SDS011;7950;42.744;23.174;2024-03-02T13:32:36;33.67;;;19.70;;
15699;SDS011;7950;42.744;23.174;2024-03-02T13:35:04;36.13;;;20.20;;
15699;SDS011;7950;42.744;23.174;2024-03-02T13:37:33;48.20;;;30.43;;
15699;SDS011;7950;42.744;23.174;2024-03-02T13:40:07;36.50;;;23.97;;
15699;SDS011;7950;42.744;23.174;2024-03-02T13:42:40;39.03;;;25.17;;
15699;SDS011;7950;42.744;23.174;2024-03-02T13:45:08;33.17;;;18.97;;
15699;SDS011;7950;42.744;23.174;2024-03-02T13:47:37;27.27;;;17.30;;
15699;SDS011;7950;42.744;23.174;2024-03-02T13:50:06;41.27;;;26.03;;
15699;SDS011;7950;42.744;23.174;2024-03-02T13:52:35;29.77;;;19.83;;
15699;SDS011;7950;42.744;23.174;2024-03-02T13:55:06;31.80;;;20.63;;
15699;SDS011;7950;42.744;23.174;2024-03-02T13:57:35;35.10;;;23.23;;
15699;SDS011;7950;42.744;23.174;2024-03-02T14:00:04;37.07;;;22.20;;
15699;SDS011;7950;42.744;23.174;2024-03-02T14:02:38;32.37;;;22.67;;
15699;SDS011;7950;42.744;23.174;2024-03-02T14:05:07;64.67;;;44.20;;
15699;SDS011;7950;42.744;23.174;2024-03-02T14:07:37;27.53;;;18.87;;
15699;SDS011;7950;42.744;23.174;2024-03-02T14:10:08;28.47;;;19.13;;
15699;SDS011;7950;42.744;23.174;2024-03-02T14:12:37;28.03;;;18.17;;
15699;SDS011;7950;42.744;23.174;2024-03-02T14:15:06;34.80;;;20.50;;
15699;SDS011;7950;42.744;23.174;2024-03-02T14:17:35;48.83;;;29.87;;
15699;SDS011;7950;42.744;23.174;2024-03-02T14:20:04;37.57;;;23.20;;
15699;SDS011;7950;42.744;23.174;2024-03-02T14:22:36;41.77;;;24.40;;
15699;SDS011;7950;42.744;23.174;2024-03-02T14:25:05;29.00;;;18.40;;
15699;SDS011;7950;42.744;23.174;2024-03-02T14:27:36;29.70;;;19.23;;
15699;SDS011;7950;42.744;23.174;2024-03-02T14:30:09;26.87;;;19.10;;
15699;SDS011;7950;42.744;23.174;2024-03-02T14:32:39;27.97;;;18.30;;
15699;SDS011;7950;42.744;23.174;2024-03-02T14:35:08;25.53;;;17.50;;
15699;SDS011;7950;42.744;23.174;2024-03-02T14:37:38;30.43;;;20.43;;
15699;SDS011;7950;42.744;23.174;2024-03-02T14:40:08;27.03;;;18.07;;
15699;SDS011;7950;42.744;23.174;2024-03-02T14:42:39;27.60;;;16.57;;
15699;SDS011;7950;42.744;23.174;2024-03-02T14:45:09;21.97;;;14.80;;
15699;SDS011;7950;42.744;23.174;2024-03-02T14:47:37;24.27;;;16.13;;
15699;SDS011;7950;42.744;23.174;2024-03-02T14:50:06;25.00;;;16.23;;